Time;durP1;ratioP1;P1;durP2;ratioP2;P2;SDS_P1;SDS_P2;PMS_P1;PMS_P2;Temp;Humidity;BMP_temperature;BMP_pressure;BME280_temperature;BME280_humidity;BME280_pressure;Samples;Min_cycle;Max_cycle;Signal;HPM_P1;HPM_P2
2021/10/19 00:00:07;;;;;;;15.38;9.52;;;;;;;9.79;95.96;101451.81;5008118;28;20049;-79
2021/10/19 00:02:36;;;;;;;14.60;11.00;;;;;;;9.67;96.42;101452.34;5004392;28;20045;-78
2021/10/19 00:05:08;;;;;;;14.75;10.65;;;;;;;9.64;96.35;101461.22;5024492;28;20065;-83
2021/10/19 00:07:36;;;;;;;14.48;10.85;;;;;;;9.68;96.22;101461.97;5011149;28;20484;-78
2021/10/19 00:10:07;;;;;;;17.63;10.98;;;;;;;9.65;96.92;101467.34;5025613;28;20493;-78
2021/10/19 00:12:35;;;;;;;15.73;11.48;;;;;;;9.66;96.29;101470.81;5028052;28;20227;-80
2021/10/19 00:15:04;;;;;;;13.35;10.43;;;;;;;9.71;96.60;101471.47;5007699;28;20067;-78
2021/10/19 00:17:31;;;;;;;15.23;11.00;;;;;;;9.86;95.59;101471.69;5014078;28;20242;-78
2021/10/19 00:19:59;;;;;;;18.67;12.13;;;;;;;9.76;96.26;101469.50;5018214;28;20164;-83
2021/10/19 00:22:26;;;;;;;15.65;12.00;;;;;;;9.72;96.49;101465.28;5038686;28;20512;-77
2021/10/19 00:24:53;;;;;;;14.75;11.38;;;;;;;9.69;96.33;101471.56;4995014;28;20042;-80
2021/10/19 00:27:20;;;;;;;18.10;12.73;;;;;;;9.60;96.69;101472.78;5014673;28;20315;-79
2021/10/19 00:29:48;;;;;;;18.77;12.77;;;;;;;9.82;96.07;101470.13;4990679;28;20164;-77
2021/10/19 00:32:15;;;;;;;17.63;12.07;;;;;;;9.56;96.90;101467.72;5032993;28;20068;-84
2021/10/19 00:34:42;;;;;;;17.80;12.38;;;;;;;9.45;97.80;101460.25;5004131;28;20042;-75
2021/10/19 00:37:09;;;;;;;20.83;13.93;;;;;;;9.30;99.80;101472.25;5001289;28;20059;-82
2021/10/19 00:39:36;;;;;;;20.75;13.70;;;;;;;9.13;100.00;101475.53;5026979;28;20056;-77
2021/10/19 00:42:04;;;;;;;20.58;14.05;;;;;;;9.16;100.00;101466.69;4999373;28;20496;-80
2021/10/19 00:44:31;;;;;;;18.27;13.65;;;;;;;9.17;100.00;101455.25;5029399;28;20072;-81
2021/10/19 00:46:59;;;;;;;20.42;15.18;;;;;;;9.17;100.00;101454.41;4999422;28;20099;-81
2021/10/19 00:49:26;;;;;;;19.27;14.52;;;;;;;9.21;100.00;101445.50;5005987;28;20144;-80
2021/10/19 00:51:54;;;;;;;16.20;14.23;;;;;;;9.23;100.00;101446.28;5038310;28;20049;-79
2021/10/19 00:54:22;;;;;;;21.00;14.38;;;;;;;9.30;100.00;101442.50;4995030;28;20049;-78
2021/10/19 00:56:52;;;;;;;19.50;14.57;;;;;;;9.26;100.00;101431.25;5001358;28;20055;-79
2021/10/19 00:59:19;;;;;;;20.88;15.80;;;;;;;9.26;100.00;101419.88;5025411;28;20508;-78
2021/10/19 01:01:47;;;;;;;16.67;13.50;;;;;;;9.39;100.00;101429.81;5014721;28;20416;-83
2021/10/19 01:04:14;;;;;;;21.35;14.45;;;;;;;9.31;100.00;101431.06;5013366;28;20088;-84
2021/10/19 01:06:42;;;;;;;20.02;14.32;;;;;;;9.30;100.00;101429.34;4999165;28;20046;-78
2021/10/19 01:09:09;;;;;;;18.73;14.77;;;;;;;9.19;100.00;101423.69;5012824;28;20045;-84
2021/10/19 01:11:36;;;;;;;20.30;15.32;;;;;;;9.25;100.00;101416.41;4998905;28;20056;-79
2021/10/19 01:14:03;;;;;;;18.73;14.95;;;;;;;9.22;100.00;101413.91;4993482;28;20058;-80
2021/10/19 01:16:30;;;;;;;21.05;15.27;;;;;;;9.08;100.00;101414.44;4983873;28;20277;-79
2021/10/19 01:18:58;;;;;;;26.92;17.15;;;;;;;9.12;100.00;101409.94;4984436;28;20060;-81
2021/10/19 01:21:25;;;;;;;20.92;14.63;;;;;;;9.21;100.00;101416.59;5001325;28;20181;-80
2021/10/19 01:23:52;;;;;;;19.35;15.45;;;;;;;9.25;100.00;101423.44;4999917;28;20048;-81
2021/10/19 01:26:19;;;;;;;19.85;15.52;;;;;;;9.22;100.00;101413.03;5021066;28;20045;-80
2021/10/19 01:28:47;;;;;;;18.42;15.50;;;;;;;9.21;100.00;101416.59;5014886;28;20050;-78
2021/10/19 01:31:14;;;;;;;23.30;15.82;;;;;;;9.15;100.00;101401.09;5037534;28;20057;-76
2021/10/19 01:33:41;;;;;;;21.92;16.08;;;;;;;9.06;100.00;101397.91;5014355;28;20380;-78
2021/10/19 01:36:12;;;;;;;24.08;15.75;;;;;;;8.98;100.00;101396.50;4988213;28;20056;-77
2021/10/19 01:38:40;;;;;;;19.20;15.85;;;;;;;9.00;100.00;101394.66;5005728;28;20141;-78
2021/10/19 01:41:09;;;;;;;20.55;15.55;;;;;;;8.97;100.00;101403.53;4997461;28;20050;-78
2021/10/19 01:43:36;;;;;;;23.75;17.52;;;;;;;8.88;100.00;101404.75;5037203;28;20057;-80
2021/10/19 01:46:04;;;;;;;21.05;15.98;;;;;;;8.85;100.00;101396.13;4989717;28;20352;-79
2021/10/19 01:48:32;;;;;;;20.00;15.82;;;;;;;8.96;100.00;101395.69;5031982;28;21596;-79
2021/10/19 01:50:59;;;;;;;20.88;15.85;;;;;;;8.97;100.00;101400.06;5014389;28;20227;-79
2021/10/19 01:53:27;;;;;;;24.67;16.95;;;;;;;9.09;100.00;101387.25;5011803;28;20049;-80
2021/10/19 01:55:55;;;;;;;21.70;16.02;;;;;;;9.11;100.00;101384.59;4997552;28;20128;-84
2021/10/19 01:58:24;;;;;;;21.27;15.38;;;;;;;9.14;100.00;101376.59;4997380;28;20046;-83
2021/10/19 02:00:53;;;;;;;24.27;16.52;;;;;;;9.12;100.00;101388.91;5013546;28;20075;-78
2021/10/19 02:03:21;;;;;;;26.17;15.90;;;;;;;9.17;100.00;101384.34;4996518;28;20153;-80
2021/10/19 02:05:49;;;;;;;21.10;15.00;;;;;;;9.09;100.00;101386.41;5020183;28;20165;-80
2021/10/19 02:08:17;;;;;;;22.73;16.95;;;;;;;8.97;100.00;101387.78;5019120;28;20057;-82
2021/10/19 02:10:44;;;;;;;20.63;16.13;;;;;;;9.17;100.00;101396.63;5016854;28;20038;-78
2021/10/19 02:13:12;;;;;;;20.17;15.48;;;;;;;9.20;100.00;101399.97;5003165;28;20136;-85
2021/10/19 02:15:39;;;;;;;22.10;16.35;;;;;;;9.18;100.00;101396.53;4999054;28;20041;-80
2021/10/19 02:18:07;;;;;;;22.88;16.73;;;;;;;9.15;100.00;101395.84;5035667;28;20071;-83
2021/10/19 02:20:36;;;;;;;20.85;16.08;;;;;;;9.21;100.00;101406.94;5001899;28;20054;-83
2021/10/19 02:23:03;;;;;;;23.73;17.23;;;;;;;9.10;100.00;101410.00;5013225;28;20053;-79
2021/10/19 02:25:31;;;;;;;23.30;15.93;;;;;;;9.11;100.00;101405.59;5017167;28;20034;-77
2021/10/19 02:27:58;;;;;;;22.27;16.00;;;;;;;9.22;100.00;101407.78;5007865;28;20041;-78
2021/10/19 02:30:26;;;;;;;22.92;17.50;;;;;;;8.99;100.00;101404.31;5011787;28;20073;-78
2021/10/19 02:32:55;;;;;;;27.95;18.42;;;;;;;8.82;100.00;101398.88;4994606;28;20588;-78
2021/10/19 02:35:22;;;;;;;23.90;18.08;;;;;;;8.79;100.00;101388.50;4980268;28;20436;-80
2021/10/19 02:37:50;;;;;;;22.77;17.95;;;;;;;9.05;100.00;101376.94;4981365;28;20056;-85
2021/10/19 02:40:18;;;;;;;26.85;17.50;;;;;;;9.22;100.00;101373.63;4992401;28;20045;-80
2021/10/19 02:42:45;;;;;;;23.30;17.85;;;;;;;9.00;100.00;101381.53;4994789;28;20053;-79
2021/10/19 02:45:13;;;;;;;22.98;18.27;;;;;;;8.79;100.00;101389.38;4991686;28;20041;-81
2021/10/19 02:47:41;;;;;;;24.50;18.25;;;;;;;8.78;100.00;101373.66;5026702;28;20136;-80
2021/10/19 02:50:09;;;;;;;24.40;17.85;;;;;;;8.93;100.00;101369.59;5004507;28;20055;-81
2021/10/19 02:52:38;;;;;;;23.88;17.08;;;;;;;9.13;100.00;101375.72;4995814;28;20452;-79
2021/10/19 02:55:06;;;;;;;21.17;16.88;;;;;;;9.27;100.00;101384.81;5003704;28;20049;-80
2021/10/19 02:57:33;;;;;;;25.40;16.48;;;;;;;9.31;100.00;101374.09;5011858;28;20066;-78
2021/10/19 03:00:01;;;;;;;24.88;17.48;;;;;;;9.25;100.00;101377.00;5012097;28;20052;-77
2021/10/19 03:02:28;;;;;;;22.75;17.73;;;;;;;9.26;100.00;101372.59;5015725;28;20056;-81
2021/10/19 03:04:55;;;;;;;24.75;17.08;;;;;;;9.26;100.00;101380.47;5003640;28;20049;-80
2021/10/19 03:07:23;;;;;;;25.40;17.35;;;;;;;9.26;100.00;101381.31;4994197;28;20049;-78
2021/10/19 03:09:50;;;;;;;26.55;18.27;;;;;;;9.05;100.00;101364.69;5025321;28;20052;-82
2021/10/19 03:12:17;;;;;;;25.13;18.92;;;;;;;9.18;100.00;101348.41;5000829;28;20079;-79
2021/10/19 03:14:44;;;;;;;28.17;18.58;;;;;;;9.15;100.00;101351.19;5000745;28;20042;-80
2021/10/19 03:17:11;;;;;;;24.20;18.35;;;;;;;9.09;100.00;101353.13;5029675;28;20393;-82
2021/10/19 03:19:38;;;;;;;24.27;17.17;;;;;;;9.11;100.00;101335.53;5001230;28;20060;-78
2021/10/19 03:22:06;;;;;;;24.50;17.55;;;;;;;9.10;100.00;101344.34;5015720;28;20057;-77
2021/10/19 03:24:33;;;;;;;22.15;17.67;;;;;;;9.07;100.00;101340.97;5009297;28;20048;-78
2021/10/19 03:27:00;;;;;;;24.23;19.00;;;;;;;9.02;100.00;101335.91;4976593;28;20054;-81
2021/10/19 03:29:27;;;;;;;23.38;17.70;;;;;;;9.08;100.00;101348.78;5008290;28;20057;-82
2021/10/19 03:31:54;;;;;;;26.38;19.13;;;;;;;8.89;100.00;101345.22;5011718;28;20055;-80
2021/10/19 03:34:21;;;;;;;27.25;17.65;;;;;;;8.97;100.00;101345.75;5025026;28;20068;-79
2021/10/19 03:36:48;;;;;;;24.65;19.85;;;;;;;9.04;100.00;101352.44;5000425;28;20063;-81
2021/10/19 03:39:16;;;;;;;28.15;20.75;;;;;;;8.87;100.00;101358.41;5014283;28;20113;-78
2021/10/19 03:41:43;;;;;;;25.48;18.38;;;;;;;9.04;100.00;101362.97;4985010;28;20078;-81
2021/10/19 03:44:10;;;;;;;24.52;18.00;;;;;;;9.10;100.00;101360.09;5016119;28;20516;-78
2021/10/19 03:46:37;;;;;;;26.00;19.58;;;;;;;9.11;100.00;101374.09;4985281;28;20059;-84
2021/10/19 03:49:04;;;;;;;24.27;17.90;;;;;;;8.97;100.00;101352.78;5021962;28;20072;-85
2021/10/19 03:51:31;;;;;;;21.60;18.35;;;;;;;8.95;100.00;101350.19;4992282;28;20050;-80
2021/10/19 03:53:59;;;;;;;27.67;19.42;;;;;;;9.02;100.00;101354.31;4992967;28;20053;-81
2021/10/19 03:56:26;;;;;;;27.02;19.05;;;;;;;9.13;100.00;101345.97;5009009;28;20049;-80
2021/10/19 03:58:53;;;;;;;27.08;18.08;;;;;;;9.09;100.00;101345.25;5017314;28;20045;-80
2021/10/19 04:01:21;;;;;;;27.88;20.15;;;;;;;9.12;100.00;101336.38;5024078;28;20292;-78
2021/10/19 04:03:49;;;;;;;25.33;19.52;;;;;;;9.11;100.00;101343.41;5026060;28;20051;-78
2021/10/19 04:06:17;;;;;;;25.23;19.25;;;;;;;9.08;100.00;101340.06;5028167;28;20046;-78
2021/10/19 04:08:44;;;;;;;27.45;20.55;;;;;;;9.00;100.00;101340.38;5010827;28;20049;-81
2021/10/19 04:11:11;;;;;;;26.50;20.30;;;;;;;9.19;100.00;101347.50;5010478;28;20049;-83
2021/10/19 04:13:38;;;;;;;24.33;18.98;;;;;;;9.10;100.00;101346.97;5026869;28;20504;-79
2021/10/19 04:16:05;;;;;;;23.95;18.48;;;;;;;9.12;100.00;101347.75;5007168;28;20054;-82
2021/10/19 04:18:33;;;;;;;24.40;19.27;;;;;;;9.03;100.00;101350.75;5009610;28;20057;-79
2021/10/19 04:21:01;;;;;;;26.05;19.63;;;;;;;8.97;100.00;101347.53;4989045;28;20496;-80
2021/10/19 04:23:28;;;;;;;25.50;20.52;;;;;;;8.88;100.00;101346.13;5008177;28;20504;-81
2021/10/19 04:25:55;;;;;;;27.05;20.52;;;;;;;8.80;100.00;101353.47;4977250;28;20054;-80
2021/10/19 04:28:23;;;;;;;26.17;19.75;;;;;;;8.97;100.00;101347.53;4992918;28;20045;-82
2021/10/19 04:30:51;;;;;;;24.15;19.48;;;;;;;8.88;100.00;101348.75;5000630;28;20060;-78
2021/10/19 04:33:18;;;;;;;26.48;20.00;;;;;;;8.93;100.00;101352.06;5008657;28;20053;-81
2021/10/19 04:35:45;;;;;;;30.92;21.75;;;;;;;8.74;100.00;101353.72;4996710;28;20046;-77
2021/10/19 04:38:13;;;;;;;28.88;21.42;;;;;;;8.73;100.00;101352.81;5011227;28;20408;-82
2021/10/19 04:40:40;;;;;;;28.90;20.98;;;;;;;8.81;100.00;101342.03;5009099;28;20050;-79
2021/10/19 04:43:07;;;;;;;27.35;21.95;;;;;;;8.87;100.00;101331.28;5014761;28;20049;-82
2021/10/19 04:45:34;;;;;;;29.42;20.75;;;;;;;8.77;100.00;101328.16;4991413;28;20051;-78
2021/10/19 04:48:02;;;;;;;26.08;20.35;;;;;;;8.79;100.00;101322.88;5005594;28;20058;-81
2021/10/19 04:50:30;;;;;;;27.90;20.95;;;;;;;8.84;100.00;101321.75;5022637;28;20057;-80
2021/10/19 04:52:57;;;;;;;30.35;20.00;;;;;;;8.83;100.00;101313.97;5015018;28;20061;-80
2021/10/19 04:55:24;;;;;;;29.90;21.25;;;;;;;8.80;100.00;101311.44;4988830;28;20050;-77
2021/10/19 04:57:52;;;;;;;28.40;22.20;;;;;;;8.81;100.00;101305.28;4999415;28;20060;-78
2021/10/19 05:00:19;;;;;;;30.48;20.98;;;;;;;8.72;100.00;101303.03;4991884;28;20120;-80
2021/10/19 05:02:47;;;;;;;27.75;21.15;;;;;;;8.69;100.00;101297.88;5013917;28;20048;-82
2021/10/19 05:05:16;;;;;;;29.58;20.65;;;;;;;8.68;100.00;101289.16;4991142;28;20072;-78
2021/10/19 05:07:43;;;;;;;27.77;20.83;;;;;;;8.60;100.00;101293.84;4983017;28;20049;-76
2021/10/19 05:10:10;;;;;;;30.17;20.67;;;;;;;8.59;100.00;101300.88;5029303;28;20049;-79
2021/10/19 05:12:37;;;;;;;31.38;22.05;;;;;;;8.51;100.00;101302.97;5010456;28;20053;-76
2021/10/19 05:15:05;;;;;;;27.70;21.40;;;;;;;8.52;100.00;101298.59;4990679;28;20041;-79
2021/10/19 05:17:32;;;;;;;28.80;21.60;;;;;;;8.52;100.00;101296.81;4994974;28;20064;-81
2021/10/19 05:19:59;;;;;;;33.58;21.80;;;;;;;8.63;100.00;101297.22;4982535;28;20621;-76
2021/10/19 05:22:26;;;;;;;28.85;21.75;;;;;;;8.51;100.00;101289.88;4997813;28;20528;-80
2021/10/19 05:24:54;;;;;;;29.35;21.75;;;;;;;8.61;100.00;101290.34;5005837;28;20073;-81
2021/10/19 05:27:21;;;;;;;34.13;21.75;;;;;;;8.63;100.00;101285.88;5014653;28;20345;-78
2021/10/19 05:29:48;;;;;;;29.52;21.30;;;;;;;8.55;100.00;101286.16;4988071;28;20064;-82
2021/10/19 05:32:16;;;;;;;30.63;21.83;;;;;;;8.57;100.00;101286.13;4995978;28;20484;-82
2021/10/19 05:34:44;;;;;;;30.05;20.83;;;;;;;8.61;100.00;101285.09;5017303;28;20055;-78
2021/10/19 05:37:11;;;;;;;29.10;21.63;;;;;;;8.62;100.00;101287.66;5021749;28;20057;-80
2021/10/19 05:39:41;;;;;;;29.38;21.25;;;;;;;8.68;100.00;101291.78;5006074;28;20057;-78
2021/10/19 05:42:09;;;;;;;30.08;21.75;;;;;;;8.59;100.00;101285.13;5032346;28;20053;-76
2021/10/19 05:44:36;;;;;;;30.42;21.02;;;;;;;8.65;100.00;101284.06;5009428;28;20071;-79
2021/10/19 05:47:03;;;;;;;27.13;21.15;;;;;;;8.65;100.00;101291.94;4973590;28;20524;-81
2021/10/19 05:49:30;;;;;;;30.27;21.75;;;;;;;8.90;100.00;101298.78;5029626;28;20120;-78
2021/10/19 05:51:57;;;;;;;30.00;22.33;;;;;;;8.65;100.00;101305.06;5014461;28;20165;-79
2021/10/19 05:54:25;;;;;;;27.85;21.23;;;;;;;8.76;100.00;101308.09;4989778;28;20052;-82
2021/10/19 05:56:52;;;;;;;30.63;21.17;;;;;;;8.96;100.00;101302.03;4993327;28;20144;-78
2021/10/19 05:59:20;;;;;;;31.00;21.95;;;;;;;8.97;100.00;101311.63;4979395;28;20412;-78
2021/10/19 06:01:48;;;;;;;28.80;20.77;;;;;;;8.87;100.00;101303.28;5034429;28;20045;-79
2021/10/19 06:04:15;;;;;;;33.25;21.83;;;;;;;8.94;100.00;101301.22;5010252;28;20041;-80
2021/10/19 06:06:53;;;;;;;26.65;20.08;;;;;;;9.13;100.00;101298.69;4980574;28;20414;-79
2021/10/19 06:09:20;;;;;;;29.98;22.60;;;;;;;9.12;100.00;101302.25;4971989;28;20045;-80
2021/10/19 06:11:48;;;;;;;32.88;22.27;;;;;;;9.24;100.00;101306.13;5007803;28;20049;-82
2021/10/19 06:14:15;;;;;;;29.30;21.27;;;;;;;9.24;100.00;101303.50;5003175;28;20057;-80
2021/10/19 06:16:43;;;;;;;33.38;23.23;;;;;;;9.27;100.00;101295.47;5015136;28;20050;-79
2021/10/19 06:19:12;;;;;;;28.92;21.35;;;;;;;9.31;100.00;101299.69;5011118;28;20049;-84
2021/10/19 06:21:40;;;;;;;31.02;21.55;;;;;;;9.40;100.00;101294.03;5014589;28;20120;-78
2021/10/19 06:24:08;;;;;;;29.77;20.58;;;;;;;9.51;100.00;101297.06;5010908;28;20072;-81
2021/10/19 06:26:36;;;;;;;28.25;21.70;;;;;;;9.50;100.00;101290.09;4997969;28;20413;-78
2021/10/19 06:29:09;;;;;;;32.33;21.38;;;;;;;9.69;100.00;101297.19;5012254;28;20125;-83
2021/10/19 06:31:36;;;;;;;29.90;21.35;;;;;;;9.69;100.00;101299.81;5015330;28;20048;-81
2021/10/19 06:34:04;;;;;;;26.55;19.15;;;;;;;9.76;100.00;101303.84;4997429;28;20045;-80
2021/10/19 06:36:32;;;;;;;29.92;20.58;;;;;;;9.86;100.00;101297.25;5040136;28;20106;-80
2021/10/19 06:38:59;;;;;;;29.88;20.60;;;;;;;10.03;99.47;101301.75;5037473;28;20045;-84
2021/10/19 06:41:28;;;;;;;30.58;20.63;;;;;;;10.09;98.73;101302.34;5003216;28;20049;-78
2021/10/19 06:43:55;;;;;;;26.30;18.98;;;;;;;10.10;98.48;101301.41;5022262;28;20140;-80
2021/10/19 06:46:42;;;;;;;28.08;21.48;;;;;;;10.23;97.69;101293.81;4982612;28;20140;-80
2021/10/19 06:49:12;;;;;;;27.73;21.15;;;;;;;10.29;97.99;101295.31;4997835;28;20049;-82
2021/10/19 06:51:39;;;;;;;31.73;19.77;;;;;;;10.41;96.47;101301.78;5034202;28;20057;-82
2021/10/19 06:54:06;;;;;;;29.63;20.17;;;;;;;10.42;97.81;101306.97;4992044;28;20041;-84
2021/10/19 06:56:33;;;;;;;33.13;19.98;;;;;;;10.45;96.43;101304.22;5015577;28;20041;-78
2021/10/19 06:59:00;;;;;;;32.80;20.60;;;;;;;10.44;96.59;101302.47;5031455;28;20057;-85
2021/10/19 07:01:28;;;;;;;29.17;20.88;;;;;;;10.44;96.13;101299.84;5016037;28;20046;-80
2021/10/19 07:03:55;;;;;;;26.23;19.70;;;;;;;10.54;96.34;101295.88;5000071;28;20407;-79
2021/10/19 07:06:24;;;;;;;27.15;19.58;;;;;;;10.63;96.09;101291.94;5001326;28;20041;-81
2021/10/19 07:08:53;;;;;;;30.67;19.67;;;;;;;10.73;95.40;101277.38;5018614;28;20268;-80
2021/10/19 07:11:25;;;;;;;27.23;19.40;;;;;;;10.80;94.52;101283.19;4977590;28;20153;-78
2021/10/19 07:13:53;;;;;;;29.77;20.88;;;;;;;10.58;95.05;101288.66;5008270;28;20060;-77
2021/10/19 07:16:22;;;;;;;28.30;20.02;;;;;;;10.56;94.97;101288.72;5003509;28;20037;-78
2021/10/19 07:18:54;;;;;;;30.75;19.90;;;;;;;10.80;93.93;101291.94;4997876;28;20487;-80
2021/10/19 07:21:23;;;;;;;28.92;19.83;;;;;;;10.83;93.54;101293.59;5012086;28;20518;-78
2021/10/19 07:23:50;;;;;;;27.73;19.17;;;;;;;10.96;92.86;101280.66;5011055;28;20056;-80
2021/10/19 07:26:18;;;;;;;25.55;18.38;;;;;;;11.16;92.16;101285.78;5009939;28;20137;-80
2021/10/19 07:28:45;;;;;;;29.83;20.70;;;;;;;11.29;95.05;101286.84;5016426;28;20050;-81
2021/10/19 07:31:12;;;;;;;24.75;18.40;;;;;;;11.38;90.58;101281.09;5011813;28;20349;-84
2021/10/19 07:33:40;;;;;;;29.33;19.80;;;;;;;11.65;89.17;101270.88;5010013;28;20059;-79
2021/10/19 07:36:07;;;;;;;34.67;22.52;;;;;;;11.78;89.39;101283.44;5009710;28;20049;-80
2021/10/19 07:38:34;;;;;;;26.65;18.90;;;;;;;11.70;89.18;101281.19;5027371;28;20148;-80
2021/10/19 07:41:02;;;;;;;27.30;19.13;;;;;;;11.86;87.74;101295.31;5008412;28;20061;-83
2021/10/19 07:43:29;;;;;;;27.30;19.45;;;;;;;11.64;88.23;101295.56;5008893;28;20050;-80
2021/10/19 07:45:56;;;;;;;29.17;18.67;;;;;;;11.74;87.70;101292.44;5025165;28;20052;-76
2021/10/19 07:48:24;;;;;;;29.33;19.73;;;;;;;11.86;87.25;101291.84;5027328;28;20405;-81
2021/10/19 07:50:51;;;;;;;28.80;20.15;;;;;;;11.91;87.10;101288.00;5001387;28;20069;-79
2021/10/19 07:53:18;;;;;;;28.83;18.08;;;;;;;12.16;85.22;101282.25;5019301;28;20547;-80
2021/10/19 07:55:48;;;;;;;26.35;18.95;;;;;;;12.20;84.45;101274.16;4990398;28;20153;-78
2021/10/19 07:58:15;;;;;;;26.13;19.30;;;;;;;12.45;83.44;101260.44;4980708;28;20076;-82
2021/10/19 08:00:43;;;;;;;27.67;19.08;;;;;;;12.55;82.78;101257.19;4992067;28;20056;-83
2021/10/19 08:03:10;;;;;;;29.38;18.80;;;;;;;12.53;82.54;101253.78;4991234;28;20512;-80
2021/10/19 08:05:41;;;;;;;25.92;19.35;;;;;;;12.67;81.92;101263.56;5007928;28;20054;-78
2021/10/19 08:08:13;;;;;;;24.33;18.65;;;;;;;13.39;79.48;101269.91;4994867;28;20080;-83
2021/10/19 08:10:42;;;;;;;26.83;19.05;;;;;;;13.83;76.04;101274.28;5009554;28;20107;-77
2021/10/19 08:13:10;;;;;;;22.67;17.08;;;;;;;15.79;68.76;101269.28;4989884;28;20440;-86
2021/10/19 08:15:38;;;;;;;26.42;17.10;;;;;;;17.31;61.98;101277.59;5007255;28;20049;-81
2021/10/19 08:18:06;;;;;;;25.33;17.90;;;;;;;17.30;60.89;101279.41;5016415;28;20136;-82
2021/10/19 08:20:34;;;;;;;27.42;17.98;;;;;;;17.36;60.41;101283.41;5009340;28;20269;-80
2021/10/19 08:23:02;;;;;;;27.10;18.55;;;;;;;17.34;59.87;101288.00;5011768;28;20045;-82
2021/10/19 08:25:31;;;;;;;19.17;15.77;;;;;;;17.30;60.44;101283.88;5031011;28;20236;-77
2021/10/19 08:27:58;;;;;;;21.40;16.48;;;;;;;16.76;61.68;101279.13;5012679;28;20041;-80
2021/10/19 08:30:26;;;;;;;22.40;17.13;;;;;;;16.89;60.86;101282.56;4991955;28;20140;-76
2021/10/19 08:32:53;;;;;;;21.42;16.40;;;;;;;16.68;61.53;101277.81;5010568;28;20041;-77
2021/10/19 08:35:24;;;;;;;24.40;17.35;;;;;;;16.35;62.51;101275.84;5007376;28;20054;-84
2021/10/19 08:37:52;;;;;;;21.95;17.17;;;;;;;16.22;63.26;101276.84;4995782;28;20052;-82
2021/10/19 08:40:20;;;;;;;28.45;17.67;;;;;;;17.66;58.59;101270.38;5026785;28;20421;-77
2021/10/19 08:42:51;;;;;;;28.30;17.83;;;;;;;18.09;57.04;101274.13;5009413;28;20053;-80
2021/10/19 08:45:19;;;;;;;21.95;17.25;;;;;;;17.33;58.57;101265.00;4993084;28;20504;-80
2021/10/19 08:47:48;;;;;;;25.40;17.42;;;;;;;17.14;59.30;101263.75;4996550;28;20208;-84
2021/10/19 08:50:19;;;;;;;22.80;17.55;;;;;;;16.97;60.49;101261.53;4992384;28;20048;-79
2021/10/19 08:52:48;;;;;;;25.83;17.23;;;;;;;19.01;54.71;101256.78;4979823;28;20473;-82
2021/10/19 08:55:17;;;;;;;24.30;16.25;;;;;;;19.93;51.58;101255.03;5008160;28;20055;-81
2021/10/19 08:57:44;;;;;;;22.83;15.50;;;;;;;21.73;47.23;101267.00;5001839;28;20136;-78
2021/10/19 09:00:12;;;;;;;22.02;15.23;;;;;;;21.15;47.29;101256.44;4979482;28;20045;-77
2021/10/19 09:02:48;;;;;;;20.38;15.00;;;;;;;21.83;45.02;101248.22;4999839;28;20045;-79
2021/10/19 09:05:22;;;;;;;25.08;16.15;;;;;;;21.63;45.43;101251.97;5010993;28;20050;-79
2021/10/19 09:07:53;;;;;;;20.77;15.13;;;;;;;22.05;44.29;101238.94;5015808;28;20053;-81
2021/10/19 09:10:20;;;;;;;19.13;15.30;;;;;;;20.96;46.72;101243.09;5035432;28;20441;-78
2021/10/19 09:12:56;;;;;;;23.95;15.98;;;;;;;19.14;51.11;101246.78;5025316;28;20050;-79
2021/10/19 09:15:34;;;;;;;22.00;15.43;;;;;;;17.87;55.40;101235.03;5037614;28;20049;-80
2021/10/19 09:18:10;;;;;;;20.08;14.77;;;;;;;17.44;57.18;101233.09;5026200;28;20068;-83
2021/10/19 09:20:42;;;;;;;21.98;16.15;;;;;;;16.65;59.62;101232.00;5001625;28;20297;-79
2021/10/19 09:23:12;;;;;;;19.35;15.25;;;;;;;16.25;61.76;101237.59;5035322;28;20053;-80
2021/10/19 09:25:41;;;;;;;21.27;15.80;;;;;;;15.94;62.85;101236.34;4995153;28;20570;-81
2021/10/19 09:28:11;;;;;;;20.17;16.10;;;;;;;15.56;64.74;101237.19;4987989;28;20054;-81
2021/10/19 09:30:43;;;;;;;20.90;15.18;;;;;;;15.45;65.61;101232.66;4996200;28;20331;-83
2021/10/19 09:33:17;;;;;;;22.30;16.88;;;;;;;15.17;67.00;101233.72;5013902;28;20056;-81
2021/10/19 09:35:55;;;;;;;24.13;16.30;;;;;;;15.06;67.67;101225.63;5010480;28;20049;-79
2021/10/19 09:38:22;;;;;;;22.63;16.67;;;;;;;15.45;66.56;101232.66;5014453;28;20053;-79
2021/10/19 09:40:52;;;;;;;22.05;16.23;;;;;;;15.55;66.13;101230.22;5019947;28;20060;-79
2021/10/19 09:43:30;;;;;;;25.52;16.75;;;;;;;15.56;66.12;101234.56;5012989;28;20152;-80
2021/10/19 09:46:02;;;;;;;25.38;16.27;;;;;;;15.57;66.05;101232.75;4987931;28;20049;-80
2021/10/19 09:48:33;;;;;;;27.08;16.00;;;;;;;15.56;66.13;101231.91;5013248;28;20053;-81
2021/10/19 09:51:02;;;;;;;19.48;15.90;;;;;;;15.69;65.67;101224.81;5004747;28;20054;-80
2021/10/19 09:53:29;;;;;;;20.58;15.57;;;;;;;15.52;65.98;101221.59;5013498;28;20136;-82
2021/10/19 09:55:57;;;;;;;22.25;15.13;;;;;;;15.68;65.75;101211.66;5016115;28;20055;-76
2021/10/19 09:58:25;;;;;;;21.50;14.85;;;;;;;15.49;66.61;101209.41;5000635;28;20053;-81
2021/10/19 10:00:52;;;;;;;24.95;15.25;;;;;;;15.69;66.22;101206.22;5037725;28;20047;-79
2021/10/19 10:03:21;;;;;;;20.25;15.25;;;;;;;15.33;67.95;101204.31;5035600;28;20080;-78
2021/10/19 10:05:50;;;;;;;21.02;15.38;;;;;;;15.65;66.74;101207.41;5013105;28;20412;-81
2021/10/19 10:08:19;;;;;;;19.15;14.52;;;;;;;15.62;67.00;101206.72;5016751;28;20053;-85
2021/10/19 10:10:54;;;;;;;21.13;14.50;;;;;;;15.81;66.14;101204.50;5017690;28;20341;-79
2021/10/19 10:13:21;;;;;;;19.93;15.33;;;;;;;15.79;66.54;101197.59;5017141;28;20060;-76
2021/10/19 10:15:50;;;;;;;20.58;14.02;;;;;;;15.50;67.77;101197.84;5002322;28;20057;-80
2021/10/19 10:18:30;;;;;;;18.33;14.38;;;;;;;15.78;66.44;101193.25;5017434;28;20053;-81
2021/10/19 10:21:11;;;;;;;19.88;14.00;;;;;;;15.87;66.40;101187.28;5025768;28;20136;-79
2021/10/19 10:23:40;;;;;;;25.20;14.98;;;;;;;15.93;65.84;101186.81;4998322;28;20136;-77
2021/10/19 10:26:11;;;;;;;22.13;13.77;;;;;;;15.99;66.26;101182.91;5014904;28;20050;-80
2021/10/19 10:28:38;;;;;;;18.27;14.55;;;;;;;15.62;68.18;101175.72;5014939;28;21931;-82
2021/10/19 10:31:18;;;;;;;17.08;13.60;;;;;;;15.72;67.69;101185.75;5012021;28;20037;-79
2021/10/19 10:34:05;;;;;;;22.65;16.00;;;;;;;15.84;67.33;101179.53;5007947;28;20137;-83
2021/10/19 10:36:40;;;;;;;19.60;14.45;;;;;;;16.00;66.71;101180.13;5016614;28;20109;-81
2021/10/19 10:39:10;;;;;;;19.27;13.25;;;;;;;15.96;67.15;101186.63;4995119;28;20084;-79
2021/10/19 10:41:43;;;;;;;18.45;13.43;;;;;;;15.97;67.42;101177.69;5017504;28;20052;-81
2021/10/19 10:44:16;;;;;;;16.33;13.15;;;;;;;15.85;67.64;101168.81;4996835;28;20395;-84
2021/10/19 10:46:43;;;;;;;22.13;13.82;;;;;;;15.86;67.48;101165.19;5009360;28;20052;-79
2021/10/19 10:49:14;;;;;;;17.52;14.35;;;;;;;15.97;67.12;101161.75;4999580;28;20046;-82
2021/10/19 10:51:45;;;;;;;17.20;13.25;;;;;;;16.07;66.87;101157.44;4975687;28;20056;-79
2021/10/19 10:54:16;;;;;;;18.67;13.45;;;;;;;16.13;67.03;101159.69;5019075;28;20064;-85
2021/10/19 10:56:51;;;;;;;16.25;12.85;;;;;;;16.21;66.89;101161.78;5020090;28;20053;-79
2021/10/19 10:59:26;;;;;;;18.55;13.50;;;;;;;16.35;66.68;101155.44;5017307;28;20257;-81
2021/10/19 11:02:06;;;;;;;19.15;13.95;;;;;;;16.37;65.81;101149.03;5029933;28;20049;-79
2021/10/19 11:04:34;;;;;;;17.13;13.25;;;;;;;16.23;66.91;101145.72;5031673;28;20460;-77
2021/10/19 11:07:02;;;;;;;24.05;13.23;;;;;;;16.20;67.50;101142.31;4992730;28;20072;-79
2021/10/19 11:09:29;;;;;;;25.95;13.50;;;;;;;16.28;66.73;101149.72;4998829;28;20403;-79
2021/10/19 11:11:58;;;;;;;18.75;12.40;;;;;;;16.49;66.06;101147.28;5018567;28;20068;-76
2021/10/19 11:14:26;;;;;;;18.77;13.02;;;;;;;16.68;65.47;101144.06;4982040;28;20500;-80